createdAt,value
2023-04-18T00:02:11.055Z,3.60
2023-04-18T00:04:38.734Z,4.33
2023-04-18T00:07:06.439Z,3.60
2023-04-18T00:09:35.293Z,4.00
2023-04-18T00:12:04.841Z,4.47
2023-04-18T00:14:34.580Z,4.40
2023-04-18T00:17:02.692Z,4.50
2023-04-18T00:19:30.330Z,4.03
2023-04-18T00:21:57.944Z,4.37
2023-04-18T00:24:28.349Z,4.10
2023-04-18T00:26:57.197Z,4.43
2023-04-18T00:29:24.853Z,4.10
2023-04-18T00:31:52.311Z,4.60
2023-04-18T00:34:19.726Z,4.63
2023-04-18T00:36:47.143Z,4.50
2023-04-18T00:39:14.602Z,4.47
2023-04-18T00:41:42.035Z,4.27
2023-04-18T00:44:10.958Z,4.47
2023-04-18T00:46:38.623Z,4.53
2023-04-18T00:49:06.313Z,4.70
2023-04-18T00:51:35.520Z,4.47
2023-04-18T00:54:04.599Z,4.30
2023-04-18T00:56:32.104Z,4.30
2023-04-18T00:59:00.179Z,4.50
2023-04-18T01:01:29.140Z,4.33
2023-04-18T01:03:56.660Z,3.97
2023-04-18T01:06:24.521Z,4.17
2023-04-18T01:08:52.127Z,4.17
2023-04-18T01:11:19.956Z,4.53
2023-04-18T01:13:59.575Z,5.10
2023-04-18T01:16:27.739Z,4.93
2023-04-18T01:18:56.948Z,5.13
2023-04-18T01:21:24.449Z,4.63
2023-04-18T01:23:53.636Z,4.90
2023-04-18T01:26:22.768Z,5.30
2023-04-18T01:28:50.272Z,5.37
2023-04-18T01:31:17.753Z,5.37
2023-04-18T01:33:45.201Z,5.00
2023-04-18T01:36:12.852Z,4.37
2023-04-18T01:38:40.420Z,5.10
2023-04-18T01:41:07.824Z,5.33
2023-04-18T01:43:36.544Z,5.67
2023-04-18T01:46:04.003Z,4.57
2023-04-18T01:48:32.871Z,5.50
2023-04-18T01:51:00.452Z,5.73
2023-04-18T01:53:27.946Z,5.10
2023-04-18T01:55:55.428Z,5.40
2023-04-18T01:58:23.740Z,5.47
2023-04-18T02:00:54.152Z,5.77
2023-04-18T02:03:22.216Z,5.37
2023-04-18T02:05:49.978Z,5.37
2023-04-18T02:08:17.485Z,5.33
2023-04-18T02:10:44.938Z,6.03
2023-04-18T02:13:12.440Z,5.50
2023-04-18T02:15:40.071Z,5.20
2023-04-18T02:18:09.508Z,5.63
2023-04-18T02:20:36.958Z,6.03
2023-04-18T02:23:04.408Z,5.97
2023-04-18T02:25:31.971Z,5.70
2023-04-18T02:27:59.661Z,5.53
2023-04-18T02:30:27.435Z,5.27
2023-04-18T02:32:56.955Z,5.27
2023-04-18T02:35:27.031Z,5.27
2023-04-18T02:37:54.520Z,5.40
2023-04-18T02:40:21.976Z,5.93
2023-04-18T02:42:49.510Z,5.87
2023-04-18T02:45:16.974Z,6.30
2023-04-18T02:47:54.710Z,5.60
2023-04-18T02:50:23.276Z,6.30
2023-04-18T02:52:52.133Z,6.57
2023-04-18T02:55:19.957Z,6.57
2023-04-18T02:57:47.482Z,7.53
2023-04-18T03:00:15.925Z,7.57
2023-04-18T03:02:43.532Z,7.73
2023-04-18T03:05:11.196Z,7.83
2023-04-18T03:07:38.655Z,7.70
2023-04-18T03:10:08.261Z,7.40
2023-04-18T03:12:35.745Z,8.03
2023-04-18T03:15:03.445Z,7.83
2023-04-18T03:17:30.990Z,7.57
2023-04-18T03:19:58.481Z,7.77
2023-04-18T03:22:26.300Z,7.50
2023-04-18T03:24:53.844Z,8.50
2023-04-18T03:27:22.624Z,7.57
2023-04-18T03:29:50.169Z,7.53
2023-04-18T03:32:18.302Z,8.17
2023-04-18T03:34:45.878Z,7.80
2023-04-18T03:37:13.422Z,7.93
2023-04-18T03:39:40.848Z,7.77
2023-04-18T03:42:08.284Z,7.37
2023-04-18T03:44:37.188Z,7.33
2023-04-18T03:47:04.853Z,8.13
2023-04-18T03:49:32.361Z,7.27
2023-04-18T03:51:59.839Z,7.00
2023-04-18T03:54:27.356Z,7.90
2023-04-18T03:56:55.754Z,6.37
2023-04-18T03:59:23.189Z,6.50
2023-04-18T04:01:52.058Z,7.07
2023-04-18T04:04:19.739Z,7.27
2023-04-18T04:06:47.421Z,6.77
2023-04-18T04:09:15.043Z,6.63
2023-04-18T04:11:42.476Z,6.13
2023-04-18T04:14:09.920Z,7.10
2023-04-18T04:16:37.761Z,6.33
2023-04-18T04:19:06.608Z,6.30
2023-04-18T04:21:34.066Z,5.27
2023-04-18T04:24:02.227Z,6.67
2023-04-18T04:26:30.651Z,6.57
2023-04-18T04:28:58.252Z,7.00
2023-04-18T04:31:25.693Z,7.07
2023-04-18T04:33:53.181Z,7.00
2023-04-18T04:36:22.987Z,7.70
2023-04-18T04:38:52.186Z,7.20
2023-04-18T04:41:19.778Z,7.40
2023-04-18T04:43:47.900Z,7.13
2023-04-18T04:46:15.899Z,7.23
2023-04-18T04:48:43.415Z,6.73
2023-04-18T04:51:10.836Z,7.20
2023-04-18T04:53:39.791Z,7.13
2023-04-18T04:56:07.563Z,6.87
2023-04-18T04:58:35.184Z,6.87
2023-04-18T05:01:02.997Z,6.80
2023-04-18T05:03:31.113Z,6.80
2023-04-18T05:05:58.730Z,7.20
2023-04-18T05:08:26.251Z,7.27
2023-04-18T05:10:55.476Z,7.40
2023-04-18T05:13:22.945Z,6.93
2023-04-18T05:15:51.957Z,7.33
2023-04-18T05:18:19.432Z,6.73
2023-04-18T05:20:46.858Z,6.63
2023-04-18T05:23:14.402Z,6.83
2023-04-18T05:25:41.899Z,6.73
2023-04-18T05:28:10.925Z,7.03
2023-04-18T05:30:38.453Z,7.13
2023-04-18T05:33:06.022Z,6.23
2023-04-18T05:35:33.699Z,6.23
2023-04-18T05:38:01.178Z,6.60
2023-04-18T05:40:28.615Z,6.73
2023-04-18T05:42:56.123Z,6.80
2023-04-18T05:45:24.984Z,6.67
2023-04-18T05:47:53.733Z,6.87
2023-04-18T05:50:21.579Z,6.03
2023-04-18T05:52:49.051Z,5.87
2023-04-18T05:55:16.581Z,6.23
2023-04-18T05:57:44.168Z,6.10
2023-04-18T06:00:12.918Z,5.90
2023-04-18T06:02:41.822Z,5.80
2023-04-18T06:05:10.696Z,5.70
2023-04-18T06:07:38.395Z,5.47
2023-04-18T06:10:09.083Z,5.30
2023-04-18T06:12:36.697Z,4.97
2023-04-18T06:15:05.450Z,5.70
2023-04-18T06:17:33.640Z,5.23
2023-04-18T06:20:03.755Z,5.27
2023-04-18T06:22:31.215Z,5.13
2023-04-18T06:24:58.698Z,5.00
2023-04-18T06:27:31.684Z,4.90
2023-04-18T06:29:59.632Z,4.87
2023-04-18T06:32:27.196Z,4.70
2023-04-18T06:34:54.737Z,4.77
2023-04-18T06:37:24.237Z,4.67
2023-04-18T06:39:51.770Z,4.33
2023-04-18T06:42:22.086Z,4.67
2023-04-18T06:44:49.946Z,4.23
2023-04-18T06:47:17.630Z,4.17
2023-04-18T06:49:45.110Z,4.30
2023-04-18T06:52:12.574Z,3.73
2023-04-18T06:54:41.604Z,4.30
2023-04-18T06:57:09.605Z,3.73
2023-04-18T06:59:37.463Z,3.53
2023-04-18T07:02:05.089Z,3.70
2023-04-18T07:04:32.687Z,3.80
2023-04-18T07:07:01.403Z,3.33
2023-04-18T07:09:28.877Z,3.73
2023-04-18T07:11:57.960Z,3.73
2023-04-18T07:14:26.129Z,3.67
2023-04-18T07:16:53.720Z,3.97
2023-04-18T07:19:21.384Z,3.70
2023-04-18T07:21:48.898Z,3.80
2023-04-18T07:24:16.487Z,3.70
2023-04-18T07:26:44.096Z,3.80
2023-04-18T07:29:12.964Z,4.00
2023-04-18T07:31:40.461Z,3.70
2023-04-18T07:34:08.952Z,3.57
2023-04-18T07:36:37.260Z,3.63
2023-04-18T07:39:04.780Z,3.83
2023-04-18T07:41:32.352Z,3.60
2023-04-18T07:43:59.882Z,3.70
2023-04-18T07:46:28.881Z,3.87
2023-04-18T07:48:56.451Z,4.00
2023-04-18T07:51:25.306Z,4.53
2023-04-18T07:53:52.850Z,4.27
2023-04-18T07:56:20.419Z,4.13
2023-04-18T07:58:48.017Z,4.23
2023-04-18T08:01:18.235Z,4.30
2023-04-18T08:03:47.179Z,5.67
2023-04-18T08:06:15.009Z,5.60
2023-04-18T08:08:42.459Z,5.00
2023-04-18T08:11:10.083Z,4.80
2023-04-18T08:13:37.541Z,4.73
2023-04-18T08:16:05.263Z,4.33
2023-04-18T08:18:33.005Z,4.87
2023-04-18T08:21:01.810Z,4.70
2023-04-18T08:23:29.245Z,4.50
2023-04-18T08:25:56.731Z,4.60
2023-04-18T08:28:24.264Z,4.33
2023-04-18T08:30:52.106Z,4.23
2023-04-18T08:33:19.797Z,4.93
2023-04-18T08:35:47.285Z,5.10
2023-04-18T08:38:17.196Z,4.90
2023-04-18T08:40:44.895Z,5.20
2023-04-18T08:43:14.797Z,4.77
2023-04-18T08:45:42.398Z,5.23
2023-04-18T08:48:13.632Z,5.40
2023-04-18T08:50:41.798Z,5.77
2023-04-18T08:53:09.631Z,5.27
2023-04-18T08:55:38.423Z,4.87
2023-04-18T08:58:06.929Z,5.63
2023-04-18T09:00:35.138Z,7.40
2023-04-18T09:03:03.624Z,9.17
2023-04-18T09:05:31.403Z,12.80
2023-04-18T09:07:58.902Z,8.50
2023-04-18T09:10:28.752Z,6.43
2023-04-18T09:12:58.825Z,5.47
2023-04-18T09:15:29.110Z,5.20
2023-04-18T09:17:59.195Z,5.40
2023-04-18T09:20:30.628Z,5.10
2023-04-18T09:23:00.593Z,5.17
2023-04-18T09:25:30.157Z,5.17
2023-04-18T09:28:01.875Z,4.80
2023-04-18T09:30:38.318Z,4.63
2023-04-18T09:33:09.506Z,5.17
2023-04-18T09:35:37.927Z,4.57
2023-04-18T09:38:06.170Z,5.30
2023-04-18T09:40:34.038Z,5.27
2023-04-18T09:43:18.488Z,4.70
2023-04-18T09:45:47.815Z,4.30
2023-04-18T09:48:15.448Z,4.33
2023-04-18T09:50:45.021Z,4.50
2023-04-18T09:53:15.049Z,4.60
2023-04-18T09:55:43.337Z,4.20
2023-04-18T09:58:13.640Z,4.27
2023-04-18T10:00:41.620Z,4.00
2023-04-18T10:03:09.771Z,4.13
2023-04-18T10:05:40.405Z,4.10
2023-04-18T10:08:09.361Z,4.00
2023-04-18T10:10:38.962Z,4.33
2023-04-18T10:13:08.295Z,4.17
2023-04-18T10:15:37.224Z,3.97
2023-04-18T10:18:10.282Z,4.07
2023-04-18T10:20:38.070Z,4.07
2023-04-18T10:23:37.217Z,4.07
2023-04-18T10:26:05.667Z,3.60
2023-04-18T10:28:51.004Z,3.10
2023-04-18T10:31:20.159Z,3.30
2023-04-18T10:34:00.695Z,3.33
2023-04-18T10:36:32.381Z,2.90
2023-04-18T10:39:02.932Z,3.17
2023-04-18T10:41:31.858Z,3.13
2023-04-18T10:44:19.547Z,2.73
2023-04-18T10:47:33.114Z,2.70
2023-04-18T10:50:06.297Z,2.47
2023-04-18T10:52:34.446Z,2.70
2023-04-18T10:55:16.327Z,2.90
2023-04-18T10:57:45.282Z,2.77
2023-04-18T11:00:15.277Z,2.77
2023-04-18T11:02:50.146Z,2.77
2023-04-18T11:05:24.508Z,2.73
2023-04-18T11:07:52.409Z,2.57
2023-04-18T11:10:21.339Z,2.50
2023-04-18T11:12:49.241Z,2.50
2023-04-18T11:15:21.534Z,2.55
2023-04-18T11:17:57.805Z,2.50
2023-04-18T11:20:27.064Z,2.70
2023-04-18T11:22:57.173Z,2.40
2023-04-18T11:25:26.925Z,2.25
2023-04-18T11:27:54.996Z,2.40
2023-04-18T11:30:22.692Z,2.77
2023-04-18T11:32:51.747Z,2.90
2023-04-18T11:35:20.356Z,2.60
2023-04-18T11:37:51.292Z,2.57
2023-04-18T11:40:18.865Z,2.50
2023-04-18T11:42:46.499Z,2.10
2023-04-18T11:45:15.256Z,2.20
2023-04-18T11:47:44.059Z,2.42
2023-04-18T11:50:13.656Z,2.55
2023-04-18T11:52:42.852Z,2.42
2023-04-18T11:55:18.542Z,2.60
2023-04-18T11:57:53.509Z,2.42
2023-04-18T12:00:30.930Z,2.38
2023-04-18T12:02:59.783Z,2.47
2023-04-18T12:05:28.999Z,2.70
2023-04-18T12:07:57.560Z,2.40
2023-04-18T12:10:28.006Z,2.53
2023-04-18T12:12:57.409Z,2.35
2023-04-18T12:15:27.085Z,2.50
2023-04-18T12:17:59.410Z,2.50
2023-04-18T12:20:34.716Z,2.67
2023-04-18T12:23:02.265Z,2.70
2023-04-18T12:25:31.560Z,2.78
2023-04-18T12:28:00.823Z,2.75
2023-04-18T12:30:30.939Z,2.75
2023-04-18T12:32:59.989Z,2.70
2023-04-18T12:35:28.480Z,3.08
2023-04-18T12:37:58.018Z,2.92
2023-04-18T12:40:28.563Z,2.90
2023-04-18T12:42:57.621Z,2.53
2023-04-18T12:45:25.371Z,2.80
2023-04-18T12:47:53.470Z,3.20
2023-04-18T12:50:22.826Z,3.00
2023-04-18T12:52:52.076Z,2.87
2023-04-18T12:55:19.667Z,3.20
2023-04-18T12:57:47.213Z,3.20
2023-04-18T13:00:16.340Z,3.90
2023-04-18T13:02:45.986Z,3.73
2023-04-18T13:05:14.827Z,3.90
2023-04-18T13:07:43.270Z,4.00
2023-04-18T13:10:12.778Z,3.83
2023-04-18T13:12:41.349Z,4.33
2023-04-18T13:15:09.691Z,4.23
2023-04-18T13:17:39.327Z,4.87
2023-04-18T13:20:10.363Z,4.40
2023-04-18T13:22:37.981Z,4.83
2023-04-18T13:25:07.105Z,4.73
2023-04-18T13:27:34.640Z,4.70
2023-04-18T13:30:02.131Z,4.93
2023-04-18T13:32:29.665Z,5.20
2023-04-18T13:34:58.565Z,4.47
2023-04-18T13:37:26.102Z,4.17
2023-04-18T13:39:53.680Z,4.63
2023-04-18T13:42:21.580Z,4.73
2023-04-18T13:44:49.952Z,5.17
2023-04-18T13:47:17.520Z,4.70
2023-04-18T13:49:44.938Z,4.60
2023-04-18T13:52:13.844Z,5.13
2023-04-18T13:54:41.632Z,5.43
2023-04-18T13:57:11.587Z,4.73
2023-04-18T13:59:41.013Z,4.73
2023-04-18T14:02:11.135Z,4.87
2023-04-18T14:04:39.029Z,5.30
2023-04-18T14:07:07.995Z,5.27
2023-04-18T14:09:36.896Z,4.93
2023-04-18T14:12:04.786Z,5.13
2023-04-18T14:14:32.315Z,5.07
2023-04-18T14:16:59.945Z,4.80
2023-04-18T14:19:28.128Z,5.03
2023-04-18T14:21:55.670Z,5.40
2023-04-18T14:24:23.462Z,5.10
2023-04-18T14:26:52.264Z,5.20
2023-04-18T14:29:19.760Z,5.30
2023-04-18T14:31:47.260Z,5.03
2023-04-18T14:34:14.783Z,5.40
2023-04-18T14:36:42.225Z,4.90
2023-04-18T14:39:10.212Z,5.13
2023-04-18T14:41:37.905Z,5.07
2023-04-18T14:44:06.846Z,4.70
2023-04-18T14:46:34.494Z,4.43
2023-04-18T14:49:01.965Z,5.27
2023-04-18T14:51:29.419Z,4.60
2023-04-18T14:53:56.895Z,4.70
2023-04-18T14:56:24.336Z,4.67
2023-04-18T14:58:51.867Z,4.80
2023-04-18T15:01:20.693Z,4.53
2023-04-18T15:03:48.509Z,4.40
2023-04-18T15:06:16.103Z,4.50
2023-04-18T15:08:44.170Z,4.67
2023-04-18T15:11:11.744Z,5.00
2023-04-18T15:13:39.960Z,4.85
2023-04-18T15:16:08.344Z,4.60
2023-04-18T15:18:37.515Z,4.45
2023-04-18T15:21:05.330Z,4.68
2023-04-18T15:23:34.024Z,4.55
2023-04-18T15:26:01.589Z,4.40
2023-04-18T15:28:29.473Z,4.65
2023-04-18T15:30:56.946Z,4.03
2023-04-18T15:33:25.100Z,3.80
2023-04-18T15:35:56.175Z,4.32
2023-04-18T15:38:23.923Z,4.20
2023-04-18T15:40:51.659Z,3.88
2023-04-18T15:43:19.114Z,3.88
2023-04-18T15:45:46.851Z,3.83
2023-04-18T15:48:14.401Z,3.70
2023-04-18T15:50:42.054Z,3.97
2023-04-18T15:53:10.835Z,3.78
2023-04-18T15:55:38.534Z,3.78
2023-04-18T15:58:06.451Z,3.72
2023-04-18T16:00:33.900Z,3.40
2023-04-18T16:03:01.723Z,3.80
2023-04-18T16:05:29.378Z,3.40
2023-04-18T16:07:58.011Z,3.63
2023-04-18T16:10:26.895Z,3.90
2023-04-18T16:12:54.536Z,3.73
2023-04-18T16:15:22.314Z,3.63
2023-04-18T16:17:49.866Z,3.70
2023-04-18T16:20:17.794Z,3.20
2023-04-18T16:22:45.281Z,3.60
2023-04-18T16:25:12.839Z,3.80
2023-04-18T16:27:42.495Z,3.93
2023-04-18T16:30:10.992Z,3.40
2023-04-18T16:32:38.979Z,3.90
2023-04-18T16:35:07.728Z,3.67
2023-04-18T16:37:35.142Z,3.87
2023-04-18T16:40:05.179Z,4.00
2023-04-18T16:42:32.807Z,3.70
2023-04-18T16:45:02.541Z,4.10
2023-04-18T16:47:30.864Z,4.00
2023-04-18T16:49:58.404Z,3.90
2023-04-18T16:52:26.090Z,3.53
2023-04-18T16:54:53.582Z,3.43
2023-04-18T16:57:21.043Z,3.47
2023-04-18T16:59:48.530Z,3.67
2023-04-18T17:02:17.600Z,3.90
2023-04-18T17:04:45.250Z,3.40
2023-04-18T17:07:13.172Z,3.83
2023-04-18T17:09:40.660Z,4.10
2023-04-18T17:12:08.253Z,4.40
2023-04-18T17:14:37.077Z,3.83
2023-04-18T17:17:04.845Z,4.70
2023-04-18T17:19:33.606Z,4.17
2023-04-18T17:22:01.791Z,3.77
2023-04-18T17:24:29.272Z,3.60
2023-04-18T17:26:57.905Z,3.60
2023-04-18T17:29:26.121Z,3.77
2023-04-18T17:31:54.280Z,3.83
2023-04-18T17:34:21.903Z,3.80
2023-04-18T17:36:50.888Z,3.70
2023-04-18T17:39:18.427Z,3.73
2023-04-18T17:41:45.985Z,3.70
2023-04-18T17:44:13.583Z,4.03
2023-04-18T17:46:41.116Z,4.10
2023-04-18T17:49:08.534Z,4.13
2023-04-18T17:51:36.033Z,4.30
2023-04-18T17:54:05.521Z,4.37
2023-04-18T17:56:32.961Z,4.23
2023-04-18T17:59:00.386Z,4.27
2023-04-18T18:01:30.170Z,4.10
2023-04-18T18:03:58.091Z,4.07
2023-04-18T18:06:27.721Z,3.90
2023-04-18T18:08:55.824Z,4.00
2023-04-18T18:11:24.647Z,3.80
2023-04-18T18:13:54.526Z,4.30
2023-04-18T18:16:22.639Z,4.13
2023-04-18T18:18:50.851Z,4.53
2023-04-18T18:21:18.499Z,4.50
2023-04-18T18:23:45.922Z,4.63
2023-04-18T18:26:13.355Z,4.60
2023-04-18T18:28:42.236Z,4.53
2023-04-18T18:31:09.837Z,4.43
2023-04-18T18:33:37.305Z,4.60
2023-04-18T18:36:05.422Z,4.07
2023-04-18T18:38:32.888Z,4.33
2023-04-18T18:41:02.342Z,4.20
2023-04-18T18:43:31.111Z,4.03
2023-04-18T18:46:00.026Z,4.20
2023-04-18T18:48:28.039Z,4.43
2023-04-18T18:50:56.415Z,5.00
2023-04-18T18:53:23.894Z,4.27
2023-04-18T18:55:51.572Z,4.50
2023-04-18T18:58:19.001Z,3.80
2023-04-18T19:00:47.513Z,4.40
2023-04-18T19:03:18.869Z,4.73
2023-04-18T19:05:46.848Z,4.30
2023-04-18T19:08:14.583Z,4.33
2023-04-18T19:10:42.418Z,4.03
2023-04-18T19:13:10.183Z,4.63
2023-04-18T19:15:37.723Z,4.27
2023-04-18T19:18:05.601Z,4.57
2023-04-18T19:20:35.112Z,4.60
2023-04-18T19:23:02.617Z,4.87
2023-04-18T19:25:30.129Z,4.60
2023-04-18T19:27:57.672Z,4.90
2023-04-18T19:30:25.317Z,5.10
2023-04-18T19:32:52.906Z,4.73
2023-04-18T19:35:20.374Z,4.83
2023-04-18T19:37:49.237Z,4.20
2023-04-18T19:40:16.866Z,4.23
2023-04-18T19:42:44.895Z,3.73
2023-04-18T19:45:15.182Z,4.40
2023-04-18T19:47:44.072Z,3.87
2023-04-18T19:50:12.115Z,4.17
2023-04-18T19:52:39.763Z,4.57
2023-04-18T19:55:09.631Z,4.77
2023-04-18T19:57:39.988Z,4.73
2023-04-18T20:00:08.944Z,4.53
2023-04-18T20:02:36.723Z,4.20
2023-04-18T20:05:05.799Z,3.60
2023-04-18T20:07:33.488Z,3.63
2023-04-18T20:10:01.047Z,3.73
2023-04-18T20:12:29.830Z,4.00
2023-04-18T20:14:58.809Z,3.43
2023-04-18T20:17:26.830Z,3.60
2023-04-18T20:19:56.939Z,3.03
2023-04-18T20:22:25.762Z,3.40
2023-04-18T20:24:53.674Z,2.80
2023-04-18T20:27:21.324Z,3.50
2023-04-18T20:29:50.240Z,3.00
2023-04-18T20:32:17.708Z,3.23
2023-04-18T20:34:45.745Z,2.93
2023-04-18T20:37:18.532Z,3.20
2023-04-18T20:39:46.216Z,2.97
2023-04-18T20:42:14.696Z,3.00
2023-04-18T20:44:44.037Z,3.40
2023-04-18T20:47:15.251Z,3.10
2023-04-18T20:49:43.327Z,3.23
2023-04-18T20:52:10.794Z,3.23
2023-04-18T20:54:38.274Z,3.40
2023-04-18T20:57:05.817Z,3.07
2023-04-18T20:59:33.356Z,3.30
2023-04-18T21:02:00.992Z,3.23
2023-04-18T21:04:30.848Z,3.50
2023-04-18T21:06:59.369Z,3.23
2023-04-18T21:09:26.837Z,3.10
2023-04-18T21:11:54.267Z,3.33
2023-04-18T21:14:21.766Z,3.00
2023-04-18T21:16:49.231Z,3.00
2023-04-18T21:19:16.719Z,2.90
2023-04-18T21:21:45.550Z,3.17
2023-04-18T21:24:13.226Z,3.17
2023-04-18T21:26:40.960Z,3.20
2023-04-18T21:29:08.805Z,3.13
2023-04-18T21:31:36.476Z,2.87
2023-04-18T21:34:05.603Z,2.57
2023-04-18T21:36:33.406Z,2.73
2023-04-18T21:39:02.475Z,2.80
2023-04-18T21:41:29.976Z,2.70
2023-04-18T21:43:57.544Z,2.33
2023-04-18T21:46:25.322Z,2.27
2023-04-18T21:48:52.829Z,2.37
2023-04-18T21:51:20.291Z,2.20
2023-04-18T21:53:47.892Z,2.43
2023-04-18T21:56:17.260Z,2.57
2023-04-18T21:58:44.859Z,2.40
2023-04-18T22:01:12.795Z,2.50
2023-04-18T22:03:40.740Z,2.53
2023-04-18T22:06:08.417Z,2.27
2023-04-18T22:08:35.964Z,2.27
2023-04-18T22:11:04.538Z,2.57
2023-04-18T22:13:33.861Z,2.43
2023-04-18T22:16:03.549Z,2.40
2023-04-18T22:18:33.995Z,2.20
2023-04-18T22:21:02.351Z,2.43
2023-04-18T22:23:30.180Z,2.90
2023-04-18T22:25:57.804Z,2.50
2023-04-18T22:28:26.140Z,2.53
2023-04-18T22:30:54.990Z,2.43
2023-04-18T22:33:22.524Z,2.60
2023-04-18T22:35:50.024Z,2.80
2023-04-18T22:38:17.548Z,2.90
2023-04-18T22:40:44.989Z,2.73
2023-04-18T22:43:12.536Z,2.33
2023-04-18T22:45:40.041Z,2.50
2023-04-18T22:48:12.455Z,2.40
2023-04-18T22:50:42.494Z,2.67
2023-04-18T22:53:10.627Z,2.57
2023-04-18T22:55:41.266Z,2.97
2023-04-18T22:58:09.672Z,3.30
2023-04-18T23:00:37.871Z,2.63
2023-04-18T23:03:05.825Z,2.80
2023-04-18T23:05:35.219Z,3.30
2023-04-18T23:08:03.028Z,3.00
2023-04-18T23:10:31.144Z,2.90
2023-04-18T23:12:58.581Z,3.00
2023-04-18T23:15:26.870Z,3.20
2023-04-18T23:17:54.661Z,2.70
2023-04-18T23:20:23.743Z,2.90
2023-04-18T23:22:52.693Z,2.97
2023-04-18T23:25:20.399Z,2.77
2023-04-18T23:27:48.066Z,3.07
2023-04-18T23:30:15.836Z,2.90
2023-04-18T23:32:43.642Z,3.10
2023-04-18T23:35:11.620Z,3.00
2023-04-18T23:37:39.153Z,3.23
2023-04-18T23:40:13.081Z,2.80
2023-04-18T23:42:40.525Z,3.10
2023-04-18T23:45:08.859Z,3.30
2023-04-18T23:47:36.435Z,3.07
2023-04-18T23:50:04.012Z,3.30
2023-04-18T23:52:31.579Z,3.80
2023-04-18T23:55:00.459Z,3.83
2023-04-18T23:57:29.256Z,4.30
2023-04-18T23:59:56.718Z,3.97
